sensor_id;sensor_type;location;lat;lon;timestamp;pressure;altitude;pressure_sealevel;temperature
24586;BMP280;12743;52.262;6.172;2023-01-10T00:00:29;99176.06;;;4.71
24586;BMP280;12743;52.262;6.172;2023-01-10T00:03:05;99167.13;;;4.60
24586;BMP280;12743;52.262;6.172;2023-01-10T00:05:34;99185.78;;;4.74
24586;BMP280;12743;52.262;6.172;2023-01-10T00:08:01;99199.88;;;4.73
24586;BMP280;12743;52.262;6.172;2023-01-10T00:10:29;99197.72;;;4.75
24586;BMP280;12743;52.262;6.172;2023-01-10T00:12:56;99183.72;;;4.68
24586;BMP280;12743;52.262;6.172;2023-01-10T00:15:42;99214.09;;;4.76
24586;BMP280;12743;52.262;6.172;2023-01-10T00:18:09;99202.50;;;4.73
24586;BMP280;12743;52.262;6.172;2023-01-10T00:20:36;99218.47;;;4.84
24586;BMP280;12743;52.262;6.172;2023-01-10T00:23:02;99218.28;;;4.89
24586;BMP280;12743;52.262;6.172;2023-01-10T00:25:29;99221.13;;;4.96
24586;BMP280;12743;52.262;6.172;2023-01-10T00:27:58;99209.03;;;5.00
24586;BMP280;12743;52.262;6.172;2023-01-10T00:30:37;99224.09;;;5.07
24586;BMP280;12743;52.262;6.172;2023-01-10T00:33:05;99236.88;;;4.99
24586;BMP280;12743;52.262;6.172;2023-01-10T00:35:32;99231.03;;;5.03
24586;BMP280;12743;52.262;6.172;2023-01-10T00:37:59;99239.66;;;4.94
24586;BMP280;12743;52.262;6.172;2023-01-10T00:40:34;99250.66;;;5.00
24586;BMP280;12743;52.262;6.172;2023-01-10T00:43:01;99251.72;;;4.99
24586;BMP280;12743;52.262;6.172;2023-01-10T00:45:46;99270.31;;;5.10
24586;BMP280;12743;52.262;6.172;2023-01-10T00:48:14;99271.00;;;5.19
24586;BMP280;12743;52.262;6.172;2023-01-10T00:50:42;99262.66;;;5.25
24586;BMP280;12743;52.262;6.172;2023-01-10T00:53:08;99277.94;;;5.27
24586;BMP280;12743;52.262;6.172;2023-01-10T00:55:35;99272.31;;;5.25
24586;BMP280;12743;52.262;6.172;2023-01-10T00:58:02;99234.63;;;5.10
24586;BMP280;12743;52.262;6.172;2023-01-10T01:00:29;99266.47;;;5.28
24586;BMP280;12743;52.262;6.172;2023-01-10T01:02:55;99278.84;;;5.31
24586;BMP280;12743;52.262;6.172;2023-01-10T01:05:22;99273.50;;;5.27
24586;BMP280;12743;52.262;6.172;2023-01-10T01:07:51;99288.47;;;5.30
24586;BMP280;12743;52.262;6.172;2023-01-10T01:10:18;99290.44;;;5.33
24586;BMP280;12743;52.262;6.172;2023-01-10T01:12:55;99293.06;;;5.33
24586;BMP280;12743;52.262;6.172;2023-01-10T01:15:23;99287.75;;;5.30
24586;BMP280;12743;52.262;6.172;2023-01-10T01:17:50;99300.28;;;5.28
24586;BMP280;12743;52.262;6.172;2023-01-10T01:20:16;99307.66;;;5.26
24586;BMP280;12743;52.262;6.172;2023-01-10T01:22:43;99312.75;;;5.22
24586;BMP280;12743;52.262;6.172;2023-01-10T01:25:09;99293.97;;;5.17
24586;BMP280;12743;52.262;6.172;2023-01-10T01:27:36;99283.22;;;4.97
24586;BMP280;12743;52.262;6.172;2023-01-10T01:30:05;99318.59;;;5.19
24586;BMP280;12743;52.262;6.172;2023-01-10T01:32:32;99328.88;;;5.16
24586;BMP280;12743;52.262;6.172;2023-01-10T01:34:59;99329.94;;;5.15
24586;BMP280;12743;52.262;6.172;2023-01-10T01:37:25;99314.66;;;5.13
24586;BMP280;12743;52.262;6.172;2023-01-10T01:39:52;99336.84;;;5.11
24586;BMP280;12743;52.262;6.172;2023-01-10T01:45:32;99343.09;;;5.18
24586;BMP280;12743;52.262;6.172;2023-01-10T01:48:05;99353.06;;;5.16
24586;BMP280;12743;52.262;6.172;2023-01-10T01:53:09;99351.97;;;4.96
24586;BMP280;12743;52.262;6.172;2023-01-10T01:55:37;99382.47;;;5.08
24586;BMP280;12743;52.262;6.172;2023-01-10T01:58:08;99377.59;;;5.07
24586;BMP280;12743;52.262;6.172;2023-01-10T02:00:38;99386.59;;;5.09
24586;BMP280;12743;52.262;6.172;2023-01-10T02:03:05;99390.69;;;5.19
24586;BMP280;12743;52.262;6.172;2023-01-10T02:05:34;99392.38;;;5.23
24586;BMP280;12743;52.262;6.172;2023-01-10T02:08:03;99387.47;;;5.22
24586;BMP280;12743;52.262;6.172;2023-01-10T02:10:53;99381.81;;;5.20
24586;BMP280;12743;52.262;6.172;2023-01-10T02:13:22;99382.88;;;5.19
24586;BMP280;12743;52.262;6.172;2023-01-10T02:15:50;99382.13;;;5.18
24586;BMP280;12743;52.262;6.172;2023-01-10T02:18:17;99386.41;;;5.23
24586;BMP280;12743;52.262;6.172;2023-01-10T02:21:13;99383.13;;;5.26
24586;BMP280;12743;52.262;6.172;2023-01-10T02:24:05;99387.25;;;5.27
24586;BMP280;12743;52.262;6.172;2023-01-10T02:29:28;99387.88;;;5.24
24586;BMP280;12743;52.262;6.172;2023-01-10T02:35:00;99386.41;;;5.23
24586;BMP280;12743;52.262;6.172;2023-01-10T02:37:52;99385.50;;;5.19
24586;BMP280;12743;52.262;6.172;2023-01-10T02:40:46;99379.38;;;5.15
24586;BMP280;12743;52.262;6.172;2023-01-10T02:43:22;99399.28;;;5.19
24586;BMP280;12743;52.262;6.172;2023-01-10T02:45:56;99377.00;;;5.01
24586;BMP280;12743;52.262;6.172;2023-01-10T02:48:24;99379.47;;;4.97
24586;BMP280;12743;52.262;6.172;2023-01-10T02:50:55;99397.78;;;5.10
24586;BMP280;12743;52.262;6.172;2023-01-10T03:01:37;99405.72;;;5.13
24586;BMP280;12743;52.262;6.172;2023-01-10T03:07:24;99401.00;;;5.07
24586;BMP280;12743;52.262;6.172;2023-01-10T03:10:02;99417.19;;;5.12
24586;BMP280;12743;52.262;6.172;2023-01-10T03:12:46;99417.06;;;5.09
24586;BMP280;12743;52.262;6.172;2023-01-10T03:15:16;99410.97;;;5.05
24586;BMP280;12743;52.262;6.172;2023-01-10T03:17:46;99423.16;;;5.13
24586;BMP280;12743;52.262;6.172;2023-01-10T03:20:16;99430.22;;;5.12
24586;BMP280;12743;52.262;6.172;2023-01-10T03:22:46;99441.38;;;5.13
24586;BMP280;12743;52.262;6.172;2023-01-10T03:25:15;99421.72;;;5.03
24586;BMP280;12743;52.262;6.172;2023-01-10T03:27:49;99441.81;;;5.15
24586;BMP280;12743;52.262;6.172;2023-01-10T03:30:25;99434.09;;;5.06
24586;BMP280;12743;52.262;6.172;2023-01-10T03:32:54;99450.44;;;5.07
24586;BMP280;12743;52.262;6.172;2023-01-10T03:38:28;99466.69;;;5.04
24586;BMP280;12743;52.262;6.172;2023-01-10T03:41:13;99437.94;;;4.91
24586;BMP280;12743;52.262;6.172;2023-01-10T03:43:56;99456.75;;;4.97
24586;BMP280;12743;52.262;6.172;2023-01-10T03:46:46;99472.22;;;5.02
24586;BMP280;12743;52.262;6.172;2023-01-10T03:49:15;99478.78;;;4.99
24586;BMP280;12743;52.262;6.172;2023-01-10T03:51:43;99456.38;;;4.86
24586;BMP280;12743;52.262;6.172;2023-01-10T03:54:10;99482.03;;;4.96
24586;BMP280;12743;52.262;6.172;2023-01-10T03:56:45;99485.06;;;4.98
24586;BMP280;12743;52.262;6.172;2023-01-10T03:59:12;99487.97;;;4.97
24586;BMP280;12743;52.262;6.172;2023-01-10T04:01:38;99492.16;;;4.89
24586;BMP280;12743;52.262;6.172;2023-01-10T04:04:05;99497.47;;;4.93
24586;BMP280;12743;52.262;6.172;2023-01-10T04:06:32;99497.63;;;4.96
24586;BMP280;12743;52.262;6.172;2023-01-10T04:08:58;99502.97;;;5.00
24586;BMP280;12743;52.262;6.172;2023-01-10T04:11:25;99503.88;;;5.04
24586;BMP280;12743;52.262;6.172;2023-01-10T04:13:51;99512.88;;;5.07
24586;BMP280;12743;52.262;6.172;2023-01-10T04:16:18;99506.28;;;5.09
24586;BMP280;12743;52.262;6.172;2023-01-10T04:18:45;99519.44;;;5.13
24586;BMP280;12743;52.262;6.172;2023-01-10T04:21:12;99503.34;;;5.11
24586;BMP280;12743;52.262;6.172;2023-01-10T04:23:38;99516.38;;;5.19
24586;BMP280;12743;52.262;6.172;2023-01-10T04:26:05;99506.88;;;5.15
24586;BMP280;12743;52.262;6.172;2023-01-10T04:28:31;99516.03;;;5.21
24586;BMP280;12743;52.262;6.172;2023-01-10T04:30:58;99523.09;;;5.20
24586;BMP280;12743;52.262;6.172;2023-01-10T04:33:24;99531.66;;;5.21
24586;BMP280;12743;52.262;6.172;2023-01-10T04:35:51;99527.53;;;5.20
24586;BMP280;12743;52.262;6.172;2023-01-10T04:38:18;99540.22;;;5.21
24586;BMP280;12743;52.262;6.172;2023-01-10T04:40:51;99537.13;;;5.28
24586;BMP280;12743;52.262;6.172;2023-01-10T04:43:18;99532.69;;;5.28
24586;BMP280;12743;52.262;6.172;2023-01-10T04:45:45;99522.91;;;5.25
24586;BMP280;12743;52.262;6.172;2023-01-10T04:48:11;99545.69;;;5.28
24586;BMP280;12743;52.262;6.172;2023-01-10T04:50:38;99549.69;;;5.26
24586;BMP280;12743;52.262;6.172;2023-01-10T04:53:04;99552.28;;;5.26
24586;BMP280;12743;52.262;6.172;2023-01-10T04:55:32;99564.22;;;5.27
24586;BMP280;12743;52.262;6.172;2023-01-10T04:57:58;99558.56;;;5.25
24586;BMP280;12743;52.262;6.172;2023-01-10T05:00:26;99561.94;;;5.25
24586;BMP280;12743;52.262;6.172;2023-01-10T05:02:56;99570.53;;;5.26
24586;BMP280;12743;52.262;6.172;2023-01-10T05:05:23;99575.09;;;5.29
24586;BMP280;12743;52.262;6.172;2023-01-10T05:07:50;99583.69;;;5.29
24586;BMP280;12743;52.262;6.172;2023-01-10T05:10:17;99540.63;;;5.03
24586;BMP280;12743;52.262;6.172;2023-01-10T05:12:44;99585.34;;;5.34
24586;BMP280;12743;52.262;6.172;2023-01-10T05:15:11;99574.06;;;5.21
24586;BMP280;12743;52.262;6.172;2023-01-10T05:17:38;99596.84;;;5.33
24586;BMP280;12743;52.262;6.172;2023-01-10T05:20:05;99594.69;;;5.35
24586;BMP280;12743;52.262;6.172;2023-01-10T05:22:32;99589.91;;;5.37
24586;BMP280;12743;52.262;6.172;2023-01-10T05:24:59;99593.16;;;5.34
24586;BMP280;12743;52.262;6.172;2023-01-10T05:27:25;99577.13;;;5.23
24586;BMP280;12743;52.262;6.172;2023-01-10T05:29:52;99596.69;;;5.29
24586;BMP280;12743;52.262;6.172;2023-01-10T05:32:19;99596.50;;;5.34
24586;BMP280;12743;52.262;6.172;2023-01-10T05:34:45;99607.50;;;5.40
24586;BMP280;12743;52.262;6.172;2023-01-10T05:37:12;99604.81;;;5.36
24586;BMP280;12743;52.262;6.172;2023-01-10T05:39:38;99604.47;;;5.38
24586;BMP280;12743;52.262;6.172;2023-01-10T05:42:06;99606.31;;;5.37
24586;BMP280;12743;52.262;6.172;2023-01-10T05:44:33;99606.94;;;5.34
24586;BMP280;12743;52.262;6.172;2023-01-10T05:46:59;99602.66;;;5.30
24586;BMP280;12743;52.262;6.172;2023-01-10T05:49:26;99609.84;;;5.33
24586;BMP280;12743;52.262;6.172;2023-01-10T05:51:52;99602.34;;;5.31
24586;BMP280;12743;52.262;6.172;2023-01-10T05:54:19;99616.56;;;5.34
24586;BMP280;12743;52.262;6.172;2023-01-10T05:56:45;99629.28;;;5.35
24586;BMP280;12743;52.262;6.172;2023-01-10T05:59:12;99633.28;;;5.33
24586;BMP280;12743;52.262;6.172;2023-01-10T06:01:53;99632.19;;;5.34
24586;BMP280;12743;52.262;6.172;2023-01-10T06:04:19;99638.34;;;5.29
24586;BMP280;12743;52.262;6.172;2023-01-10T06:06:46;99626.56;;;5.15
24586;BMP280;12743;52.262;6.172;2023-01-10T06:09:12;99638.19;;;5.26
24586;BMP280;12743;52.262;6.172;2023-01-10T06:11:39;99636.34;;;5.26
24586;BMP280;12743;52.262;6.172;2023-01-10T06:14:05;99632.50;;;5.24
24586;BMP280;12743;52.262;6.172;2023-01-10T06:16:33;99639.44;;;5.20
24586;BMP280;12743;52.262;6.172;2023-01-10T06:18:59;99632.44;;;5.03
24586;BMP280;12743;52.262;6.172;2023-01-10T06:21:26;99664.53;;;5.16
24586;BMP280;12743;52.262;6.172;2023-01-10T06:23:52;99653.81;;;5.17
24586;BMP280;12743;52.262;6.172;2023-01-10T06:26:19;99652.59;;;5.15
24586;BMP280;12743;52.262;6.172;2023-01-10T06:28:45;99663.47;;;5.17
24586;BMP280;12743;52.262;6.172;2023-01-10T06:31:12;99678.50;;;5.20
24586;BMP280;12743;52.262;6.172;2023-01-10T06:33:40;99677.22;;;5.26
24586;BMP280;12743;52.262;6.172;2023-01-10T06:36:09;99673.69;;;5.30
24586;BMP280;12743;52.262;6.172;2023-01-10T06:38:36;99680.75;;;5.30
24586;BMP280;12743;52.262;6.172;2023-01-10T06:41:02;99674.00;;;5.29
24586;BMP280;12743;52.262;6.172;2023-01-10T06:43:39;99669.56;;;5.29
24586;BMP280;12743;52.262;6.172;2023-01-10T06:46:06;99686.09;;;5.25
24586;BMP280;12743;52.262;6.172;2023-01-10T06:48:36;99686.41;;;5.32
24586;BMP280;12743;52.262;6.172;2023-01-10T06:51:04;99655.97;;;5.07
24586;BMP280;12743;52.262;6.172;2023-01-10T06:53:31;99666.81;;;5.17
24586;BMP280;12743;52.262;6.172;2023-01-10T06:55:57;99681.03;;;5.28
24586;BMP280;12743;52.262;6.172;2023-01-10T06:58:24;99687.94;;;5.33
24586;BMP280;12743;52.262;6.172;2023-01-10T07:00:51;99694.22;;;5.32
24586;BMP280;12743;52.262;6.172;2023-01-10T07:03:17;99706.63;;;5.35
24586;BMP280;12743;52.262;6.172;2023-01-10T07:05:44;99702.94;;;5.36
24586;BMP280;12743;52.262;6.172;2023-01-10T07:08:11;99701.97;;;5.40
24586;BMP280;12743;52.262;6.172;2023-01-10T07:10:40;99690.78;;;5.40
24586;BMP280;12743;52.262;6.172;2023-01-10T07:13:07;99697.53;;;5.41
24586;BMP280;12743;52.262;6.172;2023-01-10T07:15:34;99699.72;;;5.39
24586;BMP280;12743;52.262;6.172;2023-01-10T07:18:01;99701.97;;;5.40
24586;BMP280;12743;52.262;6.172;2023-01-10T07:20:28;99703.81;;;5.40
24586;BMP280;12743;52.262;6.172;2023-01-10T07:22:56;99712.88;;;5.42
24586;BMP280;12743;52.262;6.172;2023-01-10T07:25:24;99714.84;;;5.45
24586;BMP280;12743;52.262;6.172;2023-01-10T07:27:51;99717.13;;;5.47
24586;BMP280;12743;52.262;6.172;2023-01-10T07:30:21;99704.13;;;5.47
24586;BMP280;12743;52.262;6.172;2023-01-10T07:32:57;99718.38;;;5.49
24586;BMP280;12743;52.262;6.172;2023-01-10T07:35:24;99725.44;;;5.49
24586;BMP280;12743;52.262;6.172;2023-01-10T07:37:50;99728.31;;;5.47
24586;BMP280;12743;52.262;6.172;2023-01-10T07:40:17;99734.47;;;5.43
24586;BMP280;12743;52.262;6.172;2023-01-10T07:42:44;99737.34;;;5.50
24586;BMP280;12743;52.262;6.172;2023-01-10T07:45:10;99731.09;;;5.51
24586;BMP280;12743;52.262;6.172;2023-01-10T07:47:38;99732.75;;;5.47
24586;BMP280;12743;52.262;6.172;2023-01-10T07:50:05;99746.72;;;5.51
24586;BMP280;12743;52.262;6.172;2023-01-10T07:52:32;99745.94;;;5.50
24586;BMP280;12743;52.262;6.172;2023-01-10T07:54:58;99743.34;;;5.50
24586;BMP280;12743;52.262;6.172;2023-01-10T07:57:25;99721.44;;;5.43
24586;BMP280;12743;52.262;6.172;2023-01-10T07:59:52;99723.44;;;5.37
24586;BMP280;12743;52.262;6.172;2023-01-10T08:02:18;99751.91;;;5.51
24586;BMP280;12743;52.262;6.172;2023-01-10T08:04:45;99747.94;;;5.45
24586;BMP280;12743;52.262;6.172;2023-01-10T08:07:11;99751.75;;;5.47
24586;BMP280;12743;52.262;6.172;2023-01-10T08:09:38;99766.00;;;5.50
24586;BMP280;12743;52.262;6.172;2023-01-10T08:12:04;99766.75;;;5.50
24586;BMP280;12743;52.262;6.172;2023-01-10T08:14:31;99775.19;;;5.47
24586;BMP280;12743;52.262;6.172;2023-01-10T08:16:58;99755.75;;;5.45
24586;BMP280;12743;52.262;6.172;2023-01-10T08:19:24;99766.47;;;5.52
24586;BMP280;12743;52.262;6.172;2023-01-10T08:21:51;99749.19;;;5.39
24586;BMP280;12743;52.262;6.172;2023-01-10T08:24:17;99768.00;;;5.53
24586;BMP280;12743;52.262;6.172;2023-01-10T08:26:44;99746.72;;;5.34
24586;BMP280;12743;52.262;6.172;2023-01-10T08:29:10;99762.03;;;5.52
24586;BMP280;12743;52.262;6.172;2023-01-10T08:31:39;99743.19;;;5.47
24586;BMP280;12743;52.262;6.172;2023-01-10T08:34:06;99766.28;;;5.57
24586;BMP280;12743;52.262;6.172;2023-01-10T08:36:32;99771.47;;;5.57
24586;BMP280;12743;52.262;6.172;2023-01-10T08:38:59;99769.97;;;5.56
24586;BMP280;12743;52.262;6.172;2023-01-10T08:41:25;99771.81;;;5.55
24586;BMP280;12743;52.262;6.172;2023-01-10T08:43:52;99768.44;;;5.55
24586;BMP280;12743;52.262;6.172;2023-01-10T08:46:18;99766.13;;;5.62
24586;BMP280;12743;52.262;6.172;2023-01-10T08:48:46;99781.44;;;5.64
24586;BMP280;12743;52.262;6.172;2023-01-10T08:51:15;99788.97;;;5.65
24586;BMP280;12743;52.262;6.172;2023-01-10T08:53:42;99788.66;;;5.67
24586;BMP280;12743;52.262;6.172;2023-01-10T08:56:09;99784.53;;;5.66
24586;BMP280;12743;52.262;6.172;2023-01-10T08:58:36;99794.00;;;5.62
24586;BMP280;12743;52.262;6.172;2023-01-10T09:01:04;99780.53;;;5.68
24586;BMP280;12743;52.262;6.172;2023-01-10T09:03:30;99785.75;;;5.68
24586;BMP280;12743;52.262;6.172;2023-01-10T09:05:58;99789.69;;;5.74
24586;BMP280;12743;52.262;6.172;2023-01-10T09:08:25;99790.31;;;5.71
24586;BMP280;12743;52.262;6.172;2023-01-10T09:10:52;99787.41;;;5.73
24586;BMP280;12743;52.262;6.172;2023-01-10T09:13:19;99792.78;;;5.76
24586;BMP280;12743;52.262;6.172;2023-01-10T09:15:45;99780.66;;;5.72
24586;BMP280;12743;52.262;6.172;2023-01-10T09:18:12;99780.19;;;5.78
24586;BMP280;12743;52.262;6.172;2023-01-10T09:20:40;99779.88;;;5.80
24586;BMP280;12743;52.262;6.172;2023-01-10T09:23:13;99784.50;;;5.83
24586;BMP280;12743;52.262;6.172;2023-01-10T09:25:45;99791.53;;;5.82
24586;BMP280;12743;52.262;6.172;2023-01-10T09:28:13;99786.59;;;5.89
24586;BMP280;12743;52.262;6.172;2023-01-10T09:30:40;99774.16;;;5.86
24586;BMP280;12743;52.262;6.172;2023-01-10T09:33:07;99782.91;;;5.90
24586;BMP280;12743;52.262;6.172;2023-01-10T09:35:36;99794.25;;;5.94
24586;BMP280;12743;52.262;6.172;2023-01-10T09:38:04;99782.16;;;5.98
24586;BMP280;12743;52.262;6.172;2023-01-10T09:46:45;99805.53;;;6.07
24586;BMP280;12743;52.262;6.172;2023-01-10T09:52:17;99797.91;;;5.93
24586;BMP280;12743;52.262;6.172;2023-01-10T09:54:46;99819.25;;;5.95
24586;BMP280;12743;52.262;6.172;2023-01-10T09:57:16;99823.69;;;5.95
24586;BMP280;12743;52.262;6.172;2023-01-10T09:59:45;99822.91;;;5.94
24586;BMP280;12743;52.262;6.172;2023-01-10T10:05:09;99818.91;;;5.97
24586;BMP280;12743;52.262;6.172;2023-01-10T10:07:36;99816.50;;;5.83
24586;BMP280;12743;52.262;6.172;2023-01-10T10:10:07;99820.31;;;5.86
24586;BMP280;12743;52.262;6.172;2023-01-10T10:12:42;99818.47;;;5.86
24586;BMP280;12743;52.262;6.172;2023-01-10T10:18:11;99816.94;;;5.85
24586;BMP280;12743;52.262;6.172;2023-01-10T10:21:02;99821.06;;;5.86
24586;BMP280;12743;52.262;6.172;2023-01-10T10:31:57;99773.56;;;5.98
24586;BMP280;12743;52.262;6.172;2023-01-10T10:34:37;99749.22;;;5.77
24586;BMP280;12743;52.262;6.172;2023-01-10T10:37:19;99778.03;;;5.89
24586;BMP280;12743;52.262;6.172;2023-01-10T10:39:55;99770.19;;;5.97
24586;BMP280;12743;52.262;6.172;2023-01-10T10:42:28;99774.63;;;5.97
24586;BMP280;12743;52.262;6.172;2023-01-10T10:47:22;99758.38;;;5.91
24586;BMP280;12743;52.262;6.172;2023-01-10T10:49:53;99764.31;;;6.00
24586;BMP280;12743;52.262;6.172;2023-01-10T10:52:31;99763.44;;;5.96
24586;BMP280;12743;52.262;6.172;2023-01-10T10:55:01;99767.91;;;5.96
24586;BMP280;12743;52.262;6.172;2023-01-10T10:57:31;99775.50;;;6.01
24586;BMP280;12743;52.262;6.172;2023-01-10T11:00:07;99769.53;;;6.00
24586;BMP280;12743;52.262;6.172;2023-01-10T11:02:48;99760.56;;;5.89
24586;BMP280;12743;52.262;6.172;2023-01-10T11:05:20;99773.06;;;6.04
24586;BMP280;12743;52.262;6.172;2023-01-10T11:07:48;99772.34;;;5.95
24586;BMP280;12743;52.262;6.172;2023-01-10T11:10:22;99781.78;;;6.00
24586;BMP280;12743;52.262;6.172;2023-01-10T11:15:45;99782.56;;;6.00
24586;BMP280;12743;52.262;6.172;2023-01-10T11:18:15;99781.66;;;5.96
24586;BMP280;12743;52.262;6.172;2023-01-10T11:20:55;99771.72;;;5.90
24586;BMP280;12743;52.262;6.172;2023-01-10T11:29:12;99766.31;;;6.03
24586;BMP280;12743;52.262;6.172;2023-01-10T11:31:40;99775.09;;;5.99
24586;BMP280;12743;52.262;6.172;2023-01-10T11:34:23;99772.59;;;6.02
24586;BMP280;12743;52.262;6.172;2023-01-10T11:36:52;99772.50;;;5.99
24586;BMP280;12743;52.262;6.172;2023-01-10T11:39:19;99777.69;;;5.99
24586;BMP280;12743;52.262;6.172;2023-01-10T11:41:45;99770.50;;;5.87
24586;BMP280;12743;52.262;6.172;2023-01-10T11:44:16;99793.47;;;6.02
24586;BMP280;12743;52.262;6.172;2023-01-10T11:46:44;99783.47;;;6.04
24586;BMP280;12743;52.262;6.172;2023-01-10T11:49:14;99787.63;;;6.05
24586;BMP280;12743;52.262;6.172;2023-01-10T11:51:50;99779.97;;;6.09
24586;BMP280;12743;52.262;6.172;2023-01-10T11:54:23;99761.75;;;5.92
24586;BMP280;12743;52.262;6.172;2023-01-10T11:59:22;99779.19;;;6.00
24586;BMP280;12743;52.262;6.172;2023-01-10T12:04:21;99779.19;;;6.00
24586;BMP280;12743;52.262;6.172;2023-01-10T12:06:52;99785.16;;;6.00
24586;BMP280;12743;52.262;6.172;2023-01-10T12:09:41;99796.81;;;6.03
24586;BMP280;12743;52.262;6.172;2023-01-10T12:12:22;99797.56;;;6.03
24586;BMP280;12743;52.262;6.172;2023-01-10T12:14:51;99782.41;;;6.05
24586;BMP280;12743;52.262;6.172;2023-01-10T12:17:25;99779.63;;;6.10
24586;BMP280;12743;52.262;6.172;2023-01-10T12:19:54;99791.91;;;6.01
24586;BMP280;12743;52.262;6.172;2023-01-10T12:22:38;99766.22;;;5.91
24586;BMP280;12743;52.262;6.172;2023-01-10T12:25:16;99772.88;;;6.09
24586;BMP280;12743;52.262;6.172;2023-01-10T12:27:44;99760.03;;;6.04
24586;BMP280;12743;52.262;6.172;2023-01-10T12:30:28;99760.03;;;6.04
24586;BMP280;12743;52.262;6.172;2023-01-10T12:32:59;99744.69;;;6.03
24586;BMP280;12743;52.262;6.172;2023-01-10T12:36:19;99736.28;;;6.06
24586;BMP280;12743;52.262;6.172;2023-01-10T12:44:43;99702.59;;;5.92
24586;BMP280;12743;52.262;6.172;2023-01-10T12:48:01;99715.72;;;6.04
24586;BMP280;12743;52.262;6.172;2023-01-10T12:56:00;99701.78;;;6.00
24586;BMP280;12743;52.262;6.172;2023-01-10T12:58:38;99689.59;;;5.92
24586;BMP280;12743;52.262;6.172;2023-01-10T13:01:06;99693.34;;;6.03
24586;BMP280;12743;52.262;6.172;2023-01-10T13:03:34;99702.53;;;6.01
24586;BMP280;12743;52.262;6.172;2023-01-10T13:06:00;99683.75;;;5.95
24586;BMP280;12743;52.262;6.172;2023-01-10T13:08:31;99687.06;;;6.04
24586;BMP280;12743;52.262;6.172;2023-01-10T13:10:59;99701.16;;;6.03
24586;BMP280;12743;52.262;6.172;2023-01-10T13:13:36;99698.69;;;6.07
24586;BMP280;12743;52.262;6.172;2023-01-10T13:16:27;99691.97;;;6.06
24586;BMP280;12743;52.262;6.172;2023-01-10T13:19:04;99697.91;;;6.06
24586;BMP280;12743;52.262;6.172;2023-01-10T13:21:32;99697.28;;;6.09
24586;BMP280;12743;52.262;6.172;2023-01-10T13:24:03;99697.28;;;6.09
24586;BMP280;12743;52.262;6.172;2023-01-10T13:26:57;99687.34;;;6.11
24586;BMP280;12743;52.262;6.172;2023-01-10T13:31:53;99675.88;;;6.04
24586;BMP280;12743;52.262;6.172;2023-01-10T13:34:34;99668.63;;;6.09
24586;BMP280;12743;52.262;6.172;2023-01-10T13:37:13;99659.75;;;6.10
24586;BMP280;12743;52.262;6.172;2023-01-10T13:39:50;99657.13;;;6.10
24586;BMP280;12743;52.262;6.172;2023-01-10T13:42:27;99656.38;;;6.10
24586;BMP280;12743;52.262;6.172;2023-01-10T13:45:16;99640.44;;;6.11
24586;BMP280;12743;52.262;6.172;2023-01-10T13:52:48;99613.31;;;6.04
24586;BMP280;12743;52.262;6.172;2023-01-10T13:55:25;99627.66;;;6.18
24586;BMP280;12743;52.262;6.172;2023-01-10T13:57:56;99613.06;;;6.17
24586;BMP280;12743;52.262;6.172;2023-01-10T14:00:26;99625.03;;;6.18
24586;BMP280;12743;52.262;6.172;2023-01-10T14:03:44;99614.44;;;6.24
24586;BMP280;12743;52.262;6.172;2023-01-10T14:08:51;99615.97;;;6.25
24586;BMP280;12743;52.262;6.172;2023-01-10T14:11:20;99606.78;;;6.18
24586;BMP280;12743;52.262;6.172;2023-01-10T14:13:51;99609.22;;;6.24
24586;BMP280;12743;52.262;6.172;2023-01-10T14:16:46;99613.78;;;6.27
24586;BMP280;12743;52.262;6.172;2023-01-10T14:19:27;99600.44;;;6.28
24586;BMP280;12743;52.262;6.172;2023-01-10T14:21:57;99602.69;;;6.30
24586;BMP280;12743;52.262;6.172;2023-01-10T14:24:41;99591.06;;;6.27
24586;BMP280;12743;52.262;6.172;2023-01-10T14:27:13;99607.91;;;6.30
24586;BMP280;12743;52.262;6.172;2023-01-10T14:29:46;99607.75;;;6.35
24586;BMP280;12743;52.262;6.172;2023-01-10T14:32:32;99603.94;;;6.32
24586;BMP280;12743;52.262;6.172;2023-01-10T14:35:01;99597.31;;;6.35
24586;BMP280;12743;52.262;6.172;2023-01-10T14:37:38;99588.28;;;6.32
24586;BMP280;12743;52.262;6.172;2023-01-10T14:40:17;99586.44;;;6.33
24586;BMP280;12743;52.262;6.172;2023-01-10T14:42:46;99591.03;;;6.36
24586;BMP280;12743;52.262;6.172;2023-01-10T14:45:33;99576.13;;;6.36
24586;BMP280;12743;52.262;6.172;2023-01-10T14:48:21;99578.75;;;6.36
24586;BMP280;12743;52.262;6.172;2023-01-10T14:50:48;99563.88;;;6.37
24586;BMP280;12743;52.262;6.172;2023-01-10T14:53:28;99579.63;;;6.40
24586;BMP280;12743;52.262;6.172;2023-01-10T14:55:55;99588.53;;;6.39
24586;BMP280;12743;52.262;6.172;2023-01-10T14:58:22;99575.69;;;6.34
24586;BMP280;12743;52.262;6.172;2023-01-10T15:00:49;99553.06;;;6.26
24586;BMP280;12743;52.262;6.172;2023-01-10T15:03:19;99559.75;;;6.36
24586;BMP280;12743;52.262;6.172;2023-01-10T15:05:51;99534.88;;;6.38
24586;BMP280;12743;52.262;6.172;2023-01-10T15:08:25;99541.41;;;6.44
24586;BMP280;12743;52.262;6.172;2023-01-10T15:10:56;99532.94;;;6.47
24586;BMP280;12743;52.262;6.172;2023-01-10T15:13:26;99527.16;;;6.42
24586;BMP280;12743;52.262;6.172;2023-01-10T15:15:54;99537.22;;;6.52
24586;BMP280;12743;52.262;6.172;2023-01-10T15:18:38;99537.22;;;6.52
24586;BMP280;12743;52.262;6.172;2023-01-10T15:21:06;99505.00;;;6.36
24586;BMP280;12743;52.262;6.172;2023-01-10T15:23:37;99516.34;;;6.52
24586;BMP280;12743;52.262;6.172;2023-01-10T15:26:06;99507.84;;;6.55
24586;BMP280;12743;52.262;6.172;2023-01-10T15:28:36;99491.34;;;6.51
24586;BMP280;12743;52.262;6.172;2023-01-10T15:31:04;99478.94;;;6.48
24586;BMP280;12743;52.262;6.172;2023-01-10T15:33:34;99458.72;;;6.45
24586;BMP280;12743;52.262;6.172;2023-01-10T15:36:10;99439.91;;;6.39
24586;BMP280;12743;52.262;6.172;2023-01-10T15:38:41;99411.16;;;6.36
24586;BMP280;12743;52.262;6.172;2023-01-10T15:41:16;99396.00;;;6.29
24586;BMP280;12743;52.262;6.172;2023-01-10T15:43:43;99391.78;;;6.25
24586;BMP280;12743;52.262;6.172;2023-01-10T15:46:21;99368.75;;;6.27
24586;BMP280;12743;52.262;6.172;2023-01-10T15:48:57;99354.72;;;6.19
24586;BMP280;12743;52.262;6.172;2023-01-10T15:51:38;99338.34;;;6.18
24586;BMP280;12743;52.262;6.172;2023-01-10T15:54:27;99335.91;;;6.13
24586;BMP280;12743;52.262;6.172;2023-01-10T15:56:59;99310.97;;;6.12
24586;BMP280;12743;52.262;6.172;2023-01-10T16:04:39;99308.13;;;6.05
24586;BMP280;12743;52.262;6.172;2023-01-10T16:07:13;99302.81;;;6.02
24586;BMP280;12743;52.262;6.172;2023-01-10T16:09:40;99282.56;;;5.87
24586;BMP280;12743;52.262;6.172;2023-01-10T16:12:23;99305.72;;;6.00
24586;BMP280;12743;52.262;6.172;2023-01-10T16:15:17;99307.91;;;5.98